Time;durP1;ratioP1;P1;durP2;ratioP2;P2;SDS_P1;SDS_P2;PMS_P1;PMS_P2;Temp;Humidity;BMP_temperature;BMP_pressure;BME280_temperature;BME280_humidity;BME280_pressure;Samples;Min_cycle;Max_cycle;Signal;HPM_P1;HPM_P2
2022/03/13 00:00:46;;;;;;;229.60;114.10;;;;;;;-4.95;61.39;100053.48;104725;1270;74645;-73
2022/03/13 00:03:19;;;;;;;226.50;111.40;;;;;;;-5.00;61.32;100054.81;104961;1270;62731;-75
2022/03/13 00:05:49;;;;;;;232.30;115.10;;;;;;;-5.03;61.20;100055.81;104872;1270;62107;-74
2022/03/13 00:08:25;;;;;;;221.70;110.70;;;;;;;-5.05;61.34;100055.09;105346;1270;76313;-74
2022/03/13 00:11:01;;;;;;;228.80;112.80;;;;;;;-5.05;61.70;100055.77;105195;1269;70426;-73
2022/03/13 00:13:31;;;;;;;213.50;108.30;;;;;;;-5.08;62.07;100053.49;105219;1270;74328;-73
2022/03/13 00:16:03;;;;;;;;;;;;;;;-5.10;62.13;100058.16;105255;1270;62135;-73
2022/03/13 00:18:32;;;;;;;207.30;102.00;;;;;;;-5.11;62.41;100062.83;105234;1270;62104;-75
2022/03/13 00:21:03;;;;;;;219.90;107.90;;;;;;;-5.14;62.57;100061.56;105327;1270;74715;-74
2022/03/13 00:23:31;;;;;;;220.10;105.40;;;;;;;-5.19;62.61;100059.75;104453;1270;1003937;-74
2022/03/13 00:25:57;;;;;;;220.20;113.10;;;;;;;-5.23;62.54;100061.27;105259;1270;73048;-73
2022/03/13 00:28:24;;;;;;;209.70;106.90;;;;;;;-5.25;62.63;100060.89;105217;1270;62202;-74
2022/03/13 00:30:51;;;;;;;201.30;100.20;;;;;;;-5.24;62.95;100057.79;105247;1270;62124;-74
2022/03/13 00:33:18;;;;;;;200.10;101.50;;;;;;;-5.23;63.34;100060.75;105218;1270;75951;-74
2022/03/13 00:35:44;;;;;;;196.90;98.90;;;;;;;-5.22;63.33;100056.59;105235;1270;69600;-73
2022/03/13 00:38:11;;;;;;;203.60;102.70;;;;;;;-5.19;63.41;100057.32;105250;1270;71403;-74
2022/03/13 00:40:38;;;;;;;194.90;95.50;;;;;;;-5.16;63.60;100062.41;105231;1270;62634;-74
2022/03/13 00:43:04;;;;;;;205.00;103.20;;;;;;;-5.11;63.49;100055.71;105246;1270;62074;-73
2022/03/13 00:45:31;;;;;;;195.90;96.60;;;;;;;-5.05;63.43;100061.33;105234;1270;77227;-74
2022/03/13 00:47:58;;;;;;;207.30;105.00;;;;;;;-4.97;63.75;100058.50;105223;1270;69189;-73
2022/03/13 00:50:24;;;;;;;212.90;106.20;;;;;;;-4.82;63.92;100055.38;105310;1270;73442;-73
2022/03/13 00:52:51;;;;;;;210.30;100.50;;;;;;;-4.67;64.00;100054.68;105155;1270;199813;-75
2022/03/13 00:55:19;;;;;;;216.20;107.80;;;;;;;-4.63;63.82;100054.57;105259;1270;62060;-75
2022/03/13 00:57:46;;;;;;;229.20;116.00;;;;;;;-4.69;63.63;100055.55;104471;1270;1003885;-74
2022/03/13 01:00:13;;;;;;;228.30;118.50;;;;;;;-4.74;63.66;100049.77;104518;1270;1003442;-73
2022/03/13 01:02:40;;;;;;;231.10;119.30;;;;;;;-4.79;63.70;100048.30;105286;1270;73247;-73
2022/03/13 01:05:09;;;;;;;230.70;116.50;;;;;;;-4.88;63.87;100050.45;105237;1270;62148;-73
2022/03/13 01:07:39;;;;;;;238.40;122.80;;;;;;;-4.94;64.03;100049.52;105308;1270;62209;-73
2022/03/13 01:10:07;;;;;;;232.80;118.40;;;;;;;-5.01;64.14;100048.56;105246;1270;75445;-73
2022/03/13 01:12:34;;;;;;;235.40;120.80;;;;;;;-5.06;64.39;100048.67;105321;1270;67527;-73
2022/03/13 01:15:03;;;;;;;228.30;120.40;;;;;;;-5.08;64.54;100040.85;104199;1270;1002792;-75
2022/03/13 01:17:29;;;;;;;242.50;119.10;;;;;;;-5.12;64.85;100039.06;105223;1269;62411;-75
2022/03/13 01:19:56;;;;;;;233.50;119.60;;;;;;;-5.17;64.79;100041.43;104995;1271;62056;-75
2022/03/13 01:22:22;;;;;;;234.60;120.60;;;;;;;-5.22;64.96;100038.41;105250;1270;62077;-74
2022/03/13 01:24:51;;;;;;;244.60;117.90;;;;;;;-5.29;65.04;100036.23;105245;1270;62020;-74
2022/03/13 01:27:18;;;;;;;228.80;119.30;;;;;;;-5.36;65.29;100039.08;105238;1270;74131;-73
2022/03/13 01:29:45;;;;;;;231.10;117.10;;;;;;;-5.42;65.46;100034.86;105244;1270;62085;-75
2022/03/13 01:32:14;;;;;;;229.80;118.90;;;;;;;-5.46;65.48;100031.49;105206;1271;62007;-74
2022/03/13 01:34:47;;;;;;;226.60;119.90;;;;;;;-5.50;65.75;100031.79;105231;1271;75711;-75
2022/03/13 01:37:40;;;;;;;230.80;121.90;;;;;;;-5.55;65.88;100032.75;105240;1270;68575;-74
2022/03/13 01:40:10;;;;;;;230.10;118.80;;;;;;;-5.60;66.06;100026.98;104631;1277;74335;-73
2022/03/13 01:42:40;;;;;;;226.50;114.90;;;;;;;-5.62;66.26;100024.52;104634;1277;62173;-75
2022/03/13 01:45:11;;;;;;;230.50;117.30;;;;;;;-5.64;66.66;100022.41;104677;1277;62309;-74
2022/03/13 01:47:38;;;;;;;233.90;124.20;;;;;;;-5.67;66.59;100018.04;104980;1277;75005;-73
2022/03/13 01:50:09;;;;;;;239.90;124.00;;;;;;;-5.68;66.66;100016.80;104612;1277;69247;-75
2022/03/13 01:52:39;;;;;;;223.60;118.80;;;;;;;-5.68;66.97;100012.48;104549;1277;74239;-73
2022/03/13 01:55:06;;;;;;;216.50;111.90;;;;;;;-5.68;67.22;100012.66;104557;1278;62669;-73
2022/03/13 01:57:37;;;;;;;218.70;110.50;;;;;;;-5.66;67.29;100010.61;104380;1280;63905;-75
2022/03/13 02:00:09;;;;;;;213.50;112.80;;;;;;;-5.61;67.69;100011.54;104562;1278;76150;-72
2022/03/13 02:02:38;;;;;;;217.40;109.40;;;;;;;-5.55;67.61;100008.00;105018;1277;70421;-73
2022/03/13 02:05:05;;;;;;;208.60;110.70;;;;;;;-5.41;67.97;100007.48;104576;1278;73655;-73
2022/03/13 02:07:32;;;;;;;206.10;108.10;;;;;;;-5.25;68.17;100002.70;104618;1278;62280;-74
2022/03/13 02:09:59;;;;;;;213.20;107.60;;;;;;;-5.11;68.15;99999.76;104558;1278;62147;-74
2022/03/13 02:12:26;;;;;;;204.60;107.60;;;;;;;-5.01;68.14;99998.47;104578;1278;76329;-73
2022/03/13 02:14:53;;;;;;;207.50;107.90;;;;;;;-5.01;67.78;99994.33;104577;1278;69197;-72
2022/03/13 02:17:32;;;;;;;213.00;111.60;;;;;;;-5.01;67.67;99998.30;104851;1270;74725;-75
2022/03/13 02:19:59;;;;;;;222.80;114.40;;;;;;;-5.01;67.57;99993.29;105195;1270;62100;-73
2022/03/13 02:22:25;;;;;;;232.70;124.40;;;;;;;-5.06;67.74;99988.54;105198;1270;61999;-73
2022/03/13 02:24:52;;;;;;;240.80;128.30;;;;;;;-5.14;67.83;99990.01;105283;1270;75904;-74
2022/03/13 02:27:25;;;;;;;245.60;127.80;;;;;;;-5.18;68.12;99989.10;105277;1270;69435;-74
2022/03/13 02:29:52;;;;;;;240.70;128.10;;;;;;;-5.21;68.26;99987.84;105281;1270;73402;-74
2022/03/13 02:32:19;;;;;;;238.00;127.20;;;;;;;-5.23;68.41;99984.52;105206;1270;62095;-73
2022/03/13 02:34:47;;;;;;;230.40;122.80;;;;;;;-5.27;68.42;99982.92;105010;1271;62191;-74
2022/03/13 02:37:36;;;;;;;233.70;127.40;;;;;;;-5.32;68.40;99987.19;105206;1271;75932;-73
2022/03/13 02:40:03;;;;;;;243.10;127.80;;;;;;;-5.38;68.43;99987.27;105249;1270;69171;-75
2022/03/13 02:42:30;;;;;;;237.00;124.80;;;;;;;-5.46;68.36;99987.86;105203;1270;73414;-74
2022/03/13 02:44:57;;;;;;;243.70;127.10;;;;;;;-5.54;68.64;99987.41;105235;1270;62069;-74
2022/03/13 02:47:23;;;;;;;247.10;124.30;;;;;;;-5.59;68.87;99986.13;105245;1271;61987;-74
2022/03/13 02:49:50;;;;;;;235.60;124.10;;;;;;;-5.65;69.20;99978.77;105252;1270;61994;-74
2022/03/13 02:52:16;;;;;;;241.80;127.70;;;;;;;-5.69;69.52;99980.10;105280;1270;62018;-73
2022/03/13 02:54:43;;;;;;;244.60;126.00;;;;;;;-5.71;69.57;99980.23;104200;1271;1003112;-73
2022/03/13 02:57:09;;;;;;;231.80;127.10;;;;;;;-5.74;69.67;99977.08;105217;1271;62066;-73
2022/03/13 02:59:36;;;;;;;247.50;136.10;;;;;;;-5.77;69.94;99978.27;105216;1270;62098;-74
2022/03/13 03:02:03;;;;;;;241.00;130.40;;;;;;;-5.79;70.12;99976.50;105216;1271;62106;-74
2022/03/13 03:04:29;;;;;;;264.20;145.30;;;;;;;-5.81;70.52;99976.98;104903;1271;69500;-75
2022/03/13 03:06:59;;;;;;;251.80;141.80;;;;;;;-5.81;70.58;99980.27;104891;1271;73407;-74
2022/03/13 03:09:29;;;;;;;235.80;132.10;;;;;;;-5.82;70.61;99977.51;105258;1270;62136;-75
2022/03/13 03:11:57;;;;;;;208.30;114.90;;;;;;;-5.80;70.77;99980.64;105542;1271;62156;-74
2022/03/13 03:14:23;;;;;;;213.70;114.30;;;;;;;-5.74;70.73;99982.64;105383;1270;74530;-74
2022/03/13 03:16:50;;;;;;;208.00;111.10;;;;;;;-5.70;70.67;99982.34;104988;1271;69221;-74
2022/03/13 03:19:17;;;;;;;206.40;109.10;;;;;;;-5.68;70.81;99981.50;105202;1270;72172;-74
2022/03/13 03:21:43;;;;;;;207.70;112.30;;;;;;;-5.66;70.81;99980.48;105248;1271;62088;-73
2022/03/13 03:24:22;;;;;;;209.60;108.30;;;;;;;-5.60;70.88;99981.60;104999;1272;62069;-73
2022/03/13 03:26:49;;;;;;;223.00;114.50;;;;;;;-5.56;70.96;99979.95;105315;1270;76166;-74
2022/03/13 03:29:16;;;;;;;208.80;113.90;;;;;;;-5.48;71.03;99978.33;105224;1271;69084;-75
2022/03/13 03:31:46;;;;;;;232.50;122.80;;;;;;;-5.46;71.00;99972.27;105238;1270;74379;-75
2022/03/13 03:34:16;;;;;;;232.20;127.20;;;;;;;-5.50;70.89;99977.08;105225;1271;62270;-76
2022/03/13 03:36:46;;;;;;;228.20;128.80;;;;;;;-5.53;71.02;99973.58;105142;1271;62196;-74
2022/03/13 03:39:14;;;;;;;;;;;;;;;-5.49;71.24;99967.39;105379;1271;77058;-75
2022/03/13 03:41:42;;;;;;;239.20;126.50;;;;;;;-5.44;71.16;99964.86;104468;1270;1003514;-75
2022/03/13 03:44:11;;;;;;;244.10;129.90;;;;;;;-5.54;70.86;99966.81;105017;1272;71593;-73
2022/03/13 03:46:39;;;;;;;243.10;132.00;;;;;;;-5.57;71.11;99969.88;104612;1271;1002775;-75
2022/03/13 03:49:06;;;;;;;239.30;131.00;;;;;;;-5.57;71.08;99972.30;105228;1271;62615;-74
2022/03/13 03:51:33;;;;;;;229.90;130.40;;;;;;;-5.60;71.13;99969.14;105148;1271;76149;-73
2022/03/13 03:54:01;;;;;;;240.10;130.90;;;;;;;-5.66;71.17;99971.99;104921;1272;68088;-73
2022/03/13 03:56:28;;;;;;;235.60;124.50;;;;;;;-5.73;71.33;99970.34;105184;1271;73209;-73
2022/03/13 03:58:55;;;;;;;219.20;119.20;;;;;;;-5.84;71.21;99968.13;104404;1271;1002644;-74
2022/03/13 04:01:22;;;;;;;228.10;119.30;;;;;;;-5.96;71.17;99970.55;105145;1271;62047;-74
2022/03/13 04:03:50;;;;;;;229.00;122.10;;;;;;;-6.07;71.32;99966.92;105195;1271;76344;-74
2022/03/13 04:06:19;;;;;;;210.80;116.50;;;;;;;-6.18;71.45;99966.77;104377;1271;1003230;-73
2022/03/13 04:08:46;;;;;;;232.00;129.20;;;;;;;-6.26;71.74;99968.54;105172;1271;73219;-75
2022/03/13 04:11:13;;;;;;;225.50;126.90;;;;;;;-6.33;71.91;99970.33;105045;1272;62085;-75
2022/03/13 04:13:40;;;;;;;208.20;118.70;;;;;;;-6.38;72.10;99969.38;105140;1271;61938;-75
2022/03/13 04:16:08;;;;;;;199.20;113.20;;;;;;;-6.40;72.23;99969.85;105160;1271;75612;-75
2022/03/13 04:18:36;;;;;;;212.50;113.80;;;;;;;-6.41;72.56;99973.30;105328;1271;70379;-74
2022/03/13 04:21:05;;;;;;;209.70;112.50;;;;;;;-6.38;72.65;99970.59;105271;1271;73627;-75
2022/03/13 04:23:33;;;;;;;201.80;106.70;;;;;;;-6.35;72.64;99968.05;105146;1271;62140;-75
2022/03/13 04:26:01;;;;;;;202.70;108.50;;;;;;;-6.30;72.72;99971.76;105002;1272;62311;-76
2022/03/13 04:28:28;;;;;;;193.50;106.70;;;;;;;-6.24;72.77;99973.75;104989;1272;74282;-73
2022/03/13 04:30:59;;;;;;;193.30;106.00;;;;;;;-6.18;73.05;99975.23;105232;1271;61963;-74
2022/03/13 04:33:27;;;;;;;174.80;96.30;;;;;;;-6.10;73.05;99973.63;105132;1271;72213;-73
2022/03/13 04:36:00;;;;;;;182.10;100.20;;;;;;;-6.04;73.01;99972.35;105081;1271;62177;-73
2022/03/13 04:38:27;;;;;;;201.20;106.80;;;;;;;-5.98;72.87;99974.33;105156;1271;62175;-73
2022/03/13 04:40:56;;;;;;;206.00;109.00;;;;;;;-5.97;72.85;99977.48;103797;1271;1003129;-73
2022/03/13 04:43:23;;;;;;;197.90;107.90;;;;;;;-5.96;72.78;99977.48;105077;1271;69972;-73
2022/03/13 04:45:51;;;;;;;207.10;116.10;;;;;;;-5.97;72.92;99975.74;104518;1274;1016505;-75
2022/03/13 04:48:18;;;;;;;196.80;109.10;;;;;;;-5.99;72.89;99976.05;105334;1271;62201;-73
2022/03/13 04:50:46;;;;;;;188.40;105.70;;;;;;;-6.02;72.88;99972.03;104407;1271;1003088;-73
2022/03/13 04:53:13;;;;;;;197.30;108.60;;;;;;;-6.07;72.90;99969.19;105225;1271;75934;-74
2022/03/13 04:55:41;;;;;;;208.10;111.80;;;;;;;-6.10;73.01;99973.97;105230;1271;69222;-73
2022/03/13 04:58:08;;;;;;;183.00;100.40;;;;;;;-6.13;73.01;99970.83;105197;1271;73125;-73
2022/03/13 05:00:37;;;;;;;175.80;98.50;;;;;;;-6.14;73.13;99971.31;105212;1271;62101;-73
2022/03/13 05:03:05;;;;;;;181.70;98.00;;;;;;;-6.18;73.12;99972.30;105315;1271;62073;-75
2022/03/13 05:05:34;;;;;;;188.60;104.00;;;;;;;-6.22;73.35;99971.02;105343;1271;74962;-72
2022/03/13 05:08:04;;;;;;;186.40;106.40;;;;;;;-6.27;73.87;99974.39;104689;1271;1003502;-73
2022/03/13 05:10:36;;;;;;;178.00;98.00;;;;;;;-6.30;73.87;99975.38;105207;1271;73295;-74
2022/03/13 05:13:08;;;;;;;183.20;103.60;;;;;;;-6.31;73.90;99977.10;105289;1271;62220;-75
2022/03/13 05:15:35;;;;;;;187.50;101.90;;;;;;;-6.31;74.03;99979.35;105209;1271;61996;-74
2022/03/13 05:18:02;;;;;;;198.00;110.80;;;;;;;-6.31;73.86;99978.66;105219;1270;76305;-75
2022/03/13 05:20:31;;;;;;;183.50;102.90;;;;;;;-6.31;73.84;99982.46;105097;1271;69372;-74
2022/03/13 05:22:58;;;;;;;156.00;92.20;;;;;;;-6.28;73.84;99983.38;105218;1271;74409;-74
2022/03/13 05:25:24;;;;;;;158.70;92.30;;;;;;;-6.25;74.24;99986.37;105084;1271;62068;-74
2022/03/13 05:27:51;;;;;;;156.00;89.60;;;;;;;-6.16;74.36;99989.80;105250;1271;62079;-74
2022/03/13 05:30:20;;;;;;;143.50;84.10;;;;;;;-5.98;74.59;99993.54;105220;1271;77082;-74
2022/03/13 05:32:48;;;;;;;134.20;81.10;;;;;;;-5.73;74.55;99999.42;105070;1271;69394;-74
2022/03/13 05:35:16;;;;;;;151.60;82.90;;;;;;;-5.41;74.23;99999.02;105240;1271;73120;-75
2022/03/13 05:37:44;;;;;;;142.30;81.40;;;;;;;-5.05;73.72;99999.11;105204;1271;62140;-73
2022/03/13 05:40:14;;;;;;;140.90;85.00;;;;;;;-4.71;73.05;99998.13;105213;1271;62099;-73
2022/03/13 05:42:44;;;;;;;156.60;88.50;;;;;;;-4.44;72.65;99996.66;104915;1271;75589;-74
2022/03/13 05:45:13;;;;;;;147.70;87.10;;;;;;;-4.22;72.10;99997.05;105203;1271;70399;-73
2022/03/13 05:47:48;;;;;;;152.20;90.80;;;;;;;-4.04;71.68;99995.64;105254;1273;74406;-75
2022/03/13 05:50:17;;;;;;;152.20;91.00;;;;;;;-3.87;71.33;99991.09;104904;1274;62184;-73
2022/03/13 05:52:45;;;;;;;148.20;91.50;;;;;;;-3.69;71.16;99992.60;105183;1271;62079;-74
2022/03/13 05:55:13;;;;;;;147.10;94.50;;;;;;;-3.54;71.01;99987.48;105312;1271;75651;-76
2022/03/13 05:57:40;;;;;;;151.50;93.50;;;;;;;-3.38;70.62;99986.52;105010;1274;70540;-75
2022/03/13 06:00:10;;;;;;;154.70;95.40;;;;;;;-3.30;70.60;99982.91;105240;1271;73386;-73
2022/03/13 06:02:40;;;;;;;152.40;95.00;;;;;;;-3.29;70.55;99984.33;105457;1271;62092;-73
2022/03/13 06:05:09;;;;;;;155.40;96.40;;;;;;;-3.21;70.47;99989.39;105168;1271;62102;-73
2022/03/13 06:07:37;;;;;;;156.30;96.30;;;;;;;-3.13;70.44;99989.26;105208;1271;75569;-74
2022/03/13 06:10:05;;;;;;;166.10;98.30;;;;;;;-3.04;70.32;99991.04;105174;1271;70721;-75
2022/03/13 06:12:32;;;;;;;164.10;98.20;;;;;;;-2.98;70.24;99992.80;105055;1271;73335;-74
2022/03/13 06:15:00;;;;;;;174.10;99.70;;;;;;;-2.92;69.89;99993.34;105161;1271;62141;-74
2022/03/13 06:17:27;;;;;;;172.40;97.10;;;;;;;-2.84;69.48;99994.23;104886;1271;62172;-74
2022/03/13 06:19:56;;;;;;;173.30;98.70;;;;;;;-2.78;69.04;99990.09;105164;1271;76182;-74
2022/03/13 06:22:24;;;;;;;168.30;100.80;;;;;;;-2.73;68.91;99990.45;105346;1271;69398;-74
2022/03/13 06:24:51;;;;;;;169.40;99.10;;;;;;;-2.70;68.72;99991.15;105143;1271;74705;-74
2022/03/13 06:27:18;;;;;;;163.00;100.50;;;;;;;-2.71;68.56;99991.14;104909;1272;62124;-74
2022/03/13 06:29:45;;;;;;;172.90;100.10;;;;;;;-2.75;68.29;100003.14;105087;1271;61933;-73
2022/03/13 06:32:11;;;;;;;179.10;102.70;;;;;;;-2.81;68.35;100009.02;105078;1271;76126;-73
2022/03/13 06:34:38;;;;;;;172.30;100.20;;;;;;;-2.86;68.28;100007.27;105170;1271;70509;-74
2022/03/13 06:37:07;;;;;;;166.90;99.30;;;;;;;-2.88;68.18;100005.52;105270;1271;72709;-73
2022/03/13 06:39:34;;;;;;;162.40;97.70;;;;;;;-2.88;68.18;100008.30;104974;1271;62240;-73
2022/03/13 06:42:01;;;;;;;169.90;98.10;;;;;;;-2.85;68.12;100015.45;105164;1271;62189;-74
2022/03/13 06:44:27;;;;;;;148.40;91.40;;;;;;;-2.81;68.10;100015.29;105172;1271;76156;-74
2022/03/13 06:46:54;;;;;;;145.80;86.60;;;;;;;-2.79;67.77;100011.81;105148;1270;62130;-73
2022/03/13 06:49:20;;;;;;;149.80;88.80;;;;;;;-2.77;67.66;100011.83;104447;1270;1003439;-74
2022/03/13 06:51:47;;;;;;;150.10;89.30;;;;;;;-2.71;67.54;100020.37;105004;1270;62361;-73
2022/03/13 06:54:13;;;;;;;144.40;86.90;;;;;;;-2.53;67.59;100019.02;105168;1270;62060;-74
2022/03/13 06:56:40;;;;;;;145.50;85.80;;;;;;;-2.31;67.15;100015.77;105173;1270;75075;-74
2022/03/13 06:59:07;;;;;;;125.10;79.00;;;;;;;-2.09;66.78;100016.14;105136;1270;62207;-73
2022/03/13 07:01:34;;;;;;;139.50;81.50;;;;;;;-1.89;66.09;100017.70;105173;1270;72327;-74
2022/03/13 07:04:01;;;;;;;134.30;77.40;;;;;;;-1.62;65.86;100012.30;105223;1270;62120;-73
2022/03/13 07:06:27;;;;;;;125.00;74.00;;;;;;;-1.41;65.09;100006.85;105223;1270;61912;-74
2022/03/13 07:08:55;;;;;;;126.50;74.80;;;;;;;-1.25;64.85;99999.33;105202;1270;62187;-74
2022/03/13 07:11:22;;;;;;;117.10;71.60;;;;;;;-1.10;64.56;99996.83;105107;1270;68109;-74
2022/03/13 07:13:49;;;;;;;126.20;72.60;;;;;;;-0.98;63.79;99995.03;105158;1270;74352;-74
2022/03/13 07:16:16;;;;;;;124.60;74.40;;;;;;;-0.89;63.76;99992.91;104965;1270;62097;-74
2022/03/13 07:18:43;;;;;;;118.90;70.50;;;;;;;-0.75;63.77;99994.92;105165;1270;62050;-74
2022/03/13 07:21:10;;;;;;;114.00;73.50;;;;;;;-0.60;63.37;99985.42;105184;1270;74657;-74
2022/03/13 07:23:38;;;;;;;125.30;75.00;;;;;;;-0.43;63.09;99988.82;105194;1270;69233;-73
2022/03/13 07:26:05;;;;;;;116.80;71.50;;;;;;;-0.24;63.04;99990.62;104894;1271;73540;-73
2022/03/13 07:28:31;;;;;;;115.30;69.90;;;;;;;-0.05;62.74;99985.05;105187;1270;62065;-74
2022/03/13 07:30:58;;;;;;;110.80;69.10;;;;;;;0.19;62.37;99987.13;105179;1270;62094;-74
2022/03/13 07:33:25;;;;;;;105.90;67.00;;;;;;;0.45;61.85;99988.45;105165;1270;77163;-74
2022/03/13 07:35:51;;;;;;;101.30;62.80;;;;;;;0.64;61.78;99986.33;105176;1269;62158;-74
2022/03/13 07:38:17;;;;;;;103.30;63.40;;;;;;;0.76;60.83;99989.01;105176;1270;62189;-74
2022/03/13 07:40:44;;;;;;;99.90;62.30;;;;;;;0.82;60.52;99986.85;105155;1270;62018;-74
2022/03/13 07:43:12;;;;;;;104.40;66.50;;;;;;;0.89;60.20;99989.04;105190;1270;62384;-74
2022/03/13 07:45:39;;;;;;;93.60;61.10;;;;;;;0.95;59.96;99992.46;104562;1270;1003704;-74
2022/03/13 07:48:05;;;;;;;105.80;65.30;;;;;;;1.01;59.88;99992.05;105205;1268;69031;-73
2022/03/13 07:50:32;;;;;;;104.30;63.20;;;;;;;1.14;60.11;99995.20;104950;1270;62143;-73
2022/03/13 07:52:59;;;;;;;98.20;60.30;;;;;;;1.27;59.31;99993.98;105164;1270;62092;-73
2022/03/13 07:55:26;;;;;;;93.90;58.40;;;;;;;1.35;58.84;99994.59;105194;1270;62217;-74
2022/03/13 07:57:52;;;;;;;88.10;54.70;;;;;;;1.39;58.22;99995.77;105205;1270;76139;-74
2022/03/13 08:00:21;;;;;;;87.00;55.30;;;;;;;1.41;57.79;99994.33;105209;1270;70062;-73
2022/03/13 08:02:49;;;;;;;84.30;54.20;;;;;;;1.41;57.38;99992.77;105171;1270;73352;-74
2022/03/13 08:05:18;;;;;;;83.70;51.60;;;;;;;1.35;56.82;99992.83;105331;1270;62093;-74
2022/03/13 08:07:46;;;;;;;81.10;52.20;;;;;;;1.26;56.67;99994.87;105270;1270;61942;-74
2022/03/13 08:10:13;;;;;;;84.20;52.70;;;;;;;1.20;56.06;99999.86;105196;1270;74314;-74
2022/03/13 08:12:40;;;;;;;83.60;53.50;;;;;;;1.15;56.54;99996.95;105211;1270;69150;-73
2022/03/13 08:15:08;;;;;;;104.30;60.90;;;;;;;1.21;56.13;100002.64;105188;1270;62002;-73
2022/03/13 08:17:35;;;;;;;95.20;58.20;;;;;;;1.23;55.80;100002.80;105196;1270;62062;-74
2022/03/13 08:20:04;;;;;;;98.00;61.60;;;;;;;1.29;54.92;100000.27;105235;1270;62075;-74
2022/03/13 08:22:31;;;;;;;97.60;61.30;;;;;;;1.35;55.07;99997.39;105266;1270;75860;-73
2022/03/13 08:24:58;;;;;;;93.90;58.40;;;;;;;1.51;55.34;99992.44;105213;1270;70205;-74
2022/03/13 08:27:25;;;;;;;96.90;62.10;;;;;;;1.69;55.06;99992.18;105187;1270;73144;-74
2022/03/13 08:29:52;;;;;;;98.30;63.30;;;;;;;1.82;54.86;99988.83;105213;1270;61977;-74
2022/03/13 08:32:18;;;;;;;98.20;62.60;;;;;;;1.94;54.73;99989.35;105226;1270;62065;-74
2022/03/13 08:34:48;;;;;;;108.20;68.50;;;;;;;2.01;54.05;99984.68;105195;1270;77078;-75
2022/03/13 08:37:15;;;;;;;112.70;67.30;;;;;;;2.06;54.53;99988.29;105456;1269;70023;-74
2022/03/13 08:39:42;;;;;;;97.60;61.60;;;;;;;2.03;53.94;99985.00;105215;1270;73371;-74
2022/03/13 08:42:09;;;;;;;93.60;60.10;;;;;;;1.99;53.63;99987.16;105203;1270;62108;-74
2022/03/13 08:44:36;;;;;;;95.70;58.60;;;;;;;2.01;53.78;99989.77;105224;1270;61983;-74
2022/03/13 08:47:04;;;;;;;94.20;62.80;;;;;;;2.05;53.19;99991.98;105209;1270;76178;-75
2022/03/13 08:49:30;;;;;;;89.50;56.70;;;;;;;2.10;53.18;99989.80;105275;1270;69412;-74
2022/03/13 08:51:57;;;;;;;86.00;54.30;;;;;;;2.22;53.31;99992.04;105213;1270;73388;-74
2022/03/13 08:54:24;;;;;;;82.90;53.40;;;;;;;2.37;52.69;99993.88;105207;1270;62841;-74
2022/03/13 08:56:51;;;;;;;78.80;49.00;;;;;;;2.48;52.26;99988.80;105258;1270;62123;-73
2022/03/13 08:59:20;;;;;;;72.30;46.60;;;;;;;2.59;51.58;99986.66;105212;1270;75895;-74
2022/03/13 09:01:48;;;;;;;73.10;46.60;;;;;;;2.72;51.23;99985.54;104934;1271;69372;-73
2022/03/13 09:04:15;;;;;;;72.90;48.00;;;;;;;2.88;50.92;99980.30;105180;1269;74528;-75
2022/03/13 09:06:43;;;;;;;89.80;54.50;;;;;;;3.06;50.33;99973.98;105227;1270;62168;-74
2022/03/13 09:09:10;;;;;;;75.00;45.00;;;;;;;3.28;49.89;99974.58;104981;1270;62186;-73
2022/03/13 09:11:38;;;;;;;57.20;37.60;;;;;;;3.50;49.30;99974.10;105254;1270;74889;-74
2022/03/13 09:14:05;;;;;;;78.90;46.10;;;;;;;3.63;48.23;99974.32;105235;1270;70363;-74
2022/03/13 09:16:39;;;;;;;59.80;37.00;;;;;;;3.77;47.84;99974.01;105179;1270;73160;-73
2022/03/13 09:19:06;;;;;;;53.80;34.10;;;;;;;3.92;46.79;99968.37;105212;1270;62057;-76
2022/03/13 09:21:34;;;;;;;51.70;33.00;;;;;;;4.07;45.78;99971.34;105142;1270;62012;-74
2022/03/13 09:24:01;;;;;;;72.30;50.10;;;;;;;4.27;46.23;99967.83;105185;1270;77440;-74
2022/03/13 09:26:28;;;;;;;64.30;44.10;;;;;;;4.50;46.10;99969.38;105208;1270;69415;-73
2022/03/13 09:28:55;;;;;;;82.70;58.20;;;;;;;4.73;46.10;99969.27;104998;1270;71479;-75
2022/03/13 09:31:21;;;;;;;52.60;36.00;;;;;;;4.89;46.00;99970.61;105255;1270;62135;-74
2022/03/13 09:33:48;;;;;;;54.80;34.30;;;;;;;4.94;44.78;99971.52;105213;1270;61929;-73
2022/03/13 09:36:15;;;;;;;47.80;32.30;;;;;;;4.88;44.43;99971.84;105195;1270;74662;-73
2022/03/13 09:38:42;;;;;;;43.30;28.60;;;;;;;4.93;43.10;99971.01;105235;1270;68621;-74
2022/03/13 09:41:08;;;;;;;33.90;23.00;;;;;;;5.00;41.57;99968.71;105180;1270;73300;-74
2022/03/13 09:43:35;;;;;;;39.60;33.10;;;;;;;5.18;42.00;99964.48;105169;1270;62079;-73
2022/03/13 09:46:03;;;;;;;38.30;28.70;;;;;;;5.43;42.03;99957.75;105226;1269;62092;-74
2022/03/13 09:48:30;;;;;;;42.80;32.30;;;;;;;5.68;41.59;99956.08;105194;1270;75988;-73
2022/03/13 09:50:57;;;;;;;41.80;32.10;;;;;;;5.90;41.86;99952.04;105047;1271;67837;-74
2022/03/13 09:53:24;;;;;;;43.80;32.30;;;;;;;6.16;42.02;99949.46;105190;1269;72611;-73
2022/03/13 09:55:51;;;;;;;48.10;34.00;;;;;;;6.31;41.88;99945.23;105173;1270;62168;-73
2022/03/13 09:58:18;;;;;;;42.30;30.40;;;;;;;6.48;41.39;99944.13;105225;1270;62002;-73
2022/03/13 10:00:44;;;;;;;38.20;26.70;;;;;;;6.61;41.23;99944.17;105192;1270;76462;-74
2022/03/13 10:03:13;;;;;;;42.50;30.30;;;;;;;6.58;38.73;99939.34;104972;1270;69484;-74
2022/03/13 10:05:45;;;;;;;43.00;29.10;;;;;;;6.37;38.80;99940.80;105211;1270;73263;-74
2022/03/13 10:08:13;;;;;;;45.00;31.20;;;;;;;6.29;38.75;99938.41;105276;1270;62140;-73
2022/03/13 10:10:45;;;;;;;45.80;32.10;;;;;;;6.25;38.98;99938.58;105247;1270;62067;-74
2022/03/13 10:13:14;;;;;;;47.30;33.10;;;;;;;6.27;39.03;99930.36;105189;1271;76163;-73
2022/03/13 10:15:46;;;;;;;44.50;29.90;;;;;;;6.31;38.55;99930.40;105282;1270;70182;-74
2022/03/13 10:18:17;;;;;;;48.20;32.70;;;;;;;6.32;37.87;99928.64;105264;1270;73352;-73
2022/03/13 10:20:48;;;;;;;43.60;31.80;;;;;;;6.34;38.33;99920.95;105511;1270;61966;-74
2022/03/13 10:23:16;;;;;;;49.70;33.40;;;;;;;6.43;38.50;99916.56;105399;1270;61980;-74
2022/03/13 10:25:44;;;;;;;50.30;33.60;;;;;;;6.49;38.19;99914.42;105246;1270;77035;-72
2022/03/13 10:28:18;;;;;;;43.10;30.20;;;;;;;6.56;38.39;99912.77;105296;1270;70465;-75
2022/03/13 10:30:48;;;;;;;47.40;30.90;;;;;;;6.68;38.53;99912.33;105347;1270;74192;-73
2022/03/13 10:33:16;;;;;;;41.20;28.70;;;;;;;6.93;38.66;99902.96;105261;1270;62112;-73
2022/03/13 10:35:42;;;;;;;39.40;27.40;;;;;;;7.11;38.06;99903.48;105287;1270;62123;-72
2022/03/13 10:38:19;;;;;;;43.70;29.10;;;;;;;7.32;37.86;99899.33;105024;1270;76853;-75
2022/03/13 10:40:50;;;;;;;41.80;32.20;;;;;;;7.42;37.30;99899.64;105176;1270;69575;-73
2022/03/13 10:43:22;;;;;;;35.30;26.50;;;;;;;7.44;37.85;99891.59;105039;1270;73169;-74
2022/03/13 10:45:53;;;;;;;37.10;26.60;;;;;;;7.52;36.60;99891.67;105277;1270;62047;-74
2022/03/13 10:48:33;;;;;;;35.20;23.40;;;;;;;7.52;36.50;99887.94;105148;1270;62173;-71
2022/03/13 10:51:07;;;;;;;26.20;18.60;;;;;;;7.52;36.30;99882.45;105287;1270;75996;-73
2022/03/13 10:53:39;;;;;;;25.50;16.80;;;;;;;7.54;34.97;99886.60;105106;1270;70384;-74
2022/03/13 10:56:10;;;;;;;22.20;15.20;;;;;;;7.61;34.66;99885.09;105312;1270;74397;-74
2022/03/13 10:58:44;;;;;;;22.00;14.40;;;;;;;7.62;34.27;99884.16;105399;1270;62202;-74
2022/03/13 11:01:14;;;;;;;21.30;14.20;;;;;;;7.66;34.10;99882.20;105233;1270;61994;-74
2022/03/13 11:03:52;;;;;;;27.00;17.90;;;;;;;7.69;33.56;99879.08;105183;1270;76164;-74